Terminal Aerodrome Forecast
Issued by NWS

Home | Current Version | Previous Version | Text Only | Print | Product List | Glossary Off
Versions: 1 2 3 4 5 6 7 8 9 10 11 12 13 14 15 16 17 18 19 20 21 22 23

669
FTUS43 KABR 221127
TAFPIR
TAF
KPIR 221127Z 2212/2312 13009KT P6SM SKC
     FM221700 13008KT 4SM -SN OVC030
     FM222100 11008KT 1 1/2SM -SN OVC015
     FM230200 10004KT P6SM OVC010
     FM230700 31004KT P6SM BKN010=

USA.gov is the U.S. government's official web portal to all federal, state and local government web resources and services.